NJ10 weather

Dayton Heliport
South Brunswick, New Jersey, United States

Public forecast

Using degrees Fahrenheit for public forecast. Weather courtesy of forecast.io.

Closest aviation weather report (METAR) to Dayton Heliport

Closest report is Trenton Mercer Airport, 14.7 nm (27.3 km) WSW. Retrieved 2020/07/02 12:53 UTC (13 minutes ago):

KTTN 021253Z 34007KT 10SM FEW120 24/19 A2988 RMK AO2 SLP109 T02440189

Closest aviation forecast (TAF) to Dayton Heliport

Closest forecast is Trenton Mercer Airport, 14.7 nm (27.3 km) WSW. Retrieved 2020/07/02 12:22 UTC (44 minutes ago):

TAF KTTN 021120Z 0212/0312 VRB03KT P6SM SKC FM021400 36005KT P6SM SCT100 FM022000 35005KT P6SM VCSH SCT060 FM030100 VRB03KT P6SM SCT150